Ashley, Ohio
Current Conditions -  °F | °C
As of 6:39 AM on Thursday 27 Nov 2014 (Local Time) from KDLZ Reporting Station
Haze Haze  
Wind Chill: -6°   Ceiling: 1100
Heat Index: -1°   Visibility: 5mi
Dew Point: -3°   Wind: 9mph
Humidity: 86%   Direction: 330°NNW
Pressure: 30.1"   Gusts: NA
Location:  40.41°N, 82.96°W
Report Text: KDLZ 271139Z AUTO 33008KT 5SM BR BKN011 OVC016 M01/M03 A3010 RMK AO2
Loading
Personal Weather Stations






























Interactive Weather Map New forecast layout! Learn more

10-Day Weather Forecast

Advertisements
Track Severe Weather on mobile